Time;durP1;ratioP1;P1;durP2;ratioP2;P2;SDS_P1;SDS_P2;PMS_P1;PMS_P2;Temp;Humidity;BMP_temperature;BMP_pressure;BME280_temperature;BME280_humidity;BME280_pressure;Samples;Min_cycle;Max_cycle;Signal;HPM_P1;HPM_P2
2022/01/17 00:00:34;;;;;;;26.20;3.17;;;5.80;99.90;;;;;;6182155;23;20070;-87
2022/01/17 00:03:03;;;;;;;24.13;2.70;;;5.80;99.90;;;;;;6183163;23;20020;-86
2022/01/17 00:05:30;;;;;;;21.33;2.42;;;5.70;99.90;;;;;;6207519;23;20403;-85
2022/01/17 00:07:55;;;;;;;19.40;2.38;;;5.70;99.90;;;;;;6207652;23;20077;-85
2022/01/17 00:10:21;;;;;;;32.20;3.20;;;5.70;99.90;;;;;;6182914;23;20131;-86
2022/01/17 00:12:50;;;;;;;32.50;3.25;;;5.60;99.90;;;;;;6207050;23;20080;-86
2022/01/17 00:15:23;;;;;;;20.58;2.78;;;5.60;99.90;;;;;;6211165;23;20012;-85
2022/01/17 00:18:23;;;;;;;25.15;2.58;;;5.50;99.90;;;;;;6187606;23;20097;-87
2022/01/17 00:20:47;;;;;;;33.40;3.28;;;5.40;99.90;;;;;;6212535;23;20125;-86
2022/01/17 00:23:16;;;;;;;24.73;3.10;;;5.40;99.90;;;;;;6233973;23;20372;-87
2022/01/17 00:25:43;;;;;;;25.48;3.03;;;5.40;99.90;;;;;;6206867;23;20016;-87
2022/01/17 00:28:09;;;;;;;26.95;3.08;;;5.30;99.90;;;;;;6207037;23;20099;-85
2022/01/17 00:30:35;;;;;;;26.40;2.83;;;5.30;99.90;;;;;;6232252;22;20020;-85
2022/01/17 00:33:00;;;;;;;17.05;2.83;;;5.30;99.90;;;;;;6183218;23;20074;-85
2022/01/17 00:35:26;;;;;;;26.00;2.90;;;5.20;99.90;;;;;;6233858;23;20361;-85
2022/01/17 00:37:52;;;;;;;21.15;2.30;;;5.10;99.90;;;;;;6232571;23;20151;-84
2022/01/17 00:40:19;;;;;;;20.58;2.20;;;5.10;99.90;;;;;;6209201;23;20016;-86
2022/01/17 00:42:45;;;;;;;23.75;2.25;;;5.10;99.90;;;;;;6231099;23;20091;-84
2022/01/17 00:45:15;;;;;;;21.75;2.50;;;5.10;99.90;;;;;;6181179;22;20100;-85
2022/01/17 00:47:41;;;;;;;26.42;2.45;;;5.10;99.90;;;;;;6207224;23;20012;-85
2022/01/17 00:50:11;;;;;;;18.63;3.13;;;5.20;99.90;;;;;;6206957;23;20012;-86
2022/01/17 00:52:37;;;;;;;25.42;2.30;;;5.10;99.90;;;;;;6231370;23;20008;-87
2022/01/17 00:55:03;;;;;;;23.85;2.70;;;5.10;99.90;;;;;;6182699;23;20493;-86
2022/01/17 00:57:29;;;;;;;17.88;1.80;;;5.20;99.90;;;;;;6207383;23;20012;-85
2022/01/17 00:59:55;;;;;;;24.00;3.17;;;5.20;99.90;;;;;;6205986;23;20019;-86
2022/01/17 01:02:20;;;;;;;17.52;2.83;;;5.20;99.90;;;;;;6182210;23;20023;-85
2022/01/17 01:04:49;;;;;;;26.02;2.60;;;5.20;99.90;;;;;;6181811;23;20019;-87
2022/01/17 01:07:15;;;;;;;26.38;3.10;;;5.20;99.90;;;;;;6233622;22;20059;-84
2022/01/17 01:09:56;;;;;;;25.38;2.78;;;5.30;99.90;;;;;;6230118;23;20447;-86
2022/01/17 01:12:28;;;;;;;21.92;2.58;;;5.30;99.90;;;;;;6231345;23;20016;-86
2022/01/17 01:14:53;;;;;;;20.85;2.90;;;5.20;99.90;;;;;;6207630;23;20066;-83
2022/01/17 01:17:47;;;;;;;24.88;3.03;;;5.30;99.90;;;;;;6182218;23;20016;-88
2022/01/17 01:28:52;;;;;;;28.25;2.47;;;5.30;99.90;;;;;;6263058;22;20024;-87
2022/01/17 01:31:35;;;;;;;20.98;2.50;;;5.20;99.90;;;;;;6235114;23;20104;-85
2022/01/17 01:34:04;;;;;;;18.73;2.25;;;5.30;99.90;;;;;;6233070;23;20051;-85
2022/01/17 01:36:36;;;;;;;29.67;2.97;;;5.20;99.90;;;;;;6209696;23;20012;-85
2022/01/17 01:39:08;;;;;;;23.20;2.97;;;5.20;99.90;;;;;;6182969;23;20775;-85
2022/01/17 01:41:43;;;;;;;24.58;2.90;;;5.20;99.90;;;;;;6210102;23;20233;-85
2022/01/17 01:44:20;;;;;;;17.08;2.72;;;5.20;99.90;;;;;;6208937;23;20048;-86
2022/01/17 01:46:59;;;;;;;29.70;2.88;;;5.20;99.90;;;;;;6214067;22;20440;-84
2022/01/17 01:49:31;;;;;;;21.70;3.58;;;5.20;99.90;;;;;;6193810;22;20016;-86
2022/01/17 01:52:03;;;;;;;20.55;2.70;;;5.20;99.90;;;;;;6244330;22;20072;-84
2022/01/17 01:54:29;;;;;;;20.65;2.38;;;5.30;99.90;;;;;;6215408;22;20016;-86
2022/01/17 01:56:57;;;;;;;23.45;2.75;;;5.20;99.90;;;;;;6241294;22;20016;-85
2022/01/17 01:59:24;;;;;;;27.88;3.13;;;5.20;99.90;;;;;;6216025;22;20181;-84
2022/01/17 02:01:51;;;;;;;19.58;2.20;;;5.20;99.90;;;;;;6192679;22;20007;-86
2022/01/17 02:04:18;;;;;;;29.70;2.80;;;5.20;99.90;;;;;;6215696;22;20019;-87
2022/01/17 02:06:47;;;;;;;25.45;3.05;;;5.20;99.90;;;;;;6219699;22;20020;-86
2022/01/17 02:09:13;;;;;;;25.45;3.08;;;5.20;99.90;;;;;;6217504;22;20051;-87
2022/01/17 02:11:42;;;;;;;28.67;3.42;;;5.20;99.90;;;;;;6244629;22;20023;-86
2022/01/17 02:14:10;;;;;;;27.67;2.85;;;5.10;99.90;;;;;;6245117;22;20085;-86
2022/01/17 02:17:01;;;;;;;21.23;2.45;;;5.10;99.90;;;;;;6245673;22;20012;-87
2022/01/17 02:19:28;;;;;;;23.52;3.05;;;5.10;99.90;;;;;;6218530;22;20019;-86
2022/01/17 02:21:55;;;;;;;21.92;3.22;;;5.00;99.90;;;;;;6242309;22;20360;-86
2022/01/17 02:24:22;;;;;;;28.58;3.55;;;5.00;99.90;;;;;;6238550;22;20436;-85
2022/01/17 02:26:51;;;;;;;23.50;3.03;;;5.00;99.90;;;;;;6237026;22;20026;-86
2022/01/17 02:29:20;;;;;;;15.40;2.17;;;5.00;99.90;;;;;;6213043;22;20027;-86
2022/01/17 02:31:49;;;;;;;27.20;2.75;;;4.90;99.90;;;;;;6210836;22;20023;-86
2022/01/17 02:34:16;;;;;;;18.25;2.55;;;4.90;99.90;;;;;;6237978;22;20016;-86
2022/01/17 02:36:46;;;;;;;22.02;2.60;;;4.80;99.90;;;;;;6210933;22;20012;-86
2022/01/17 02:39:13;;;;;;;24.35;3.38;;;4.80;99.90;;;;;;6238183;22;20015;-85
2022/01/17 02:41:46;;;;;;;21.60;2.70;;;4.80;99.90;;;;;;6210000;22;20043;-85
2022/01/17 02:44:22;;;;;;;25.38;3.03;;;4.80;99.90;;;;;;6237971;22;20538;-85
2022/01/17 02:46:48;;;;;;;20.67;3.00;;;4.70;99.90;;;;;;6206779;23;20020;-87
2022/01/17 02:49:20;;;;;;;18.50;2.63;;;4.70;99.90;;;;;;6232357;22;20086;-86
2022/01/17 02:51:51;;;;;;;24.20;3.03;;;4.70;99.90;;;;;;6181468;23;20095;-88
2022/01/17 02:54:18;;;;;;;30.77;2.78;;;4.60;99.90;;;;;;6231793;23;20067;-84
2022/01/17 02:56:43;;;;;;;32.20;3.75;;;4.60;99.90;;;;;;6230772;23;20401;-86
2022/01/17 02:59:12;;;;;;;29.02;2.47;;;4.60;99.90;;;;;;6233911;22;20008;-87
2022/01/17 03:01:41;;;;;;;28.50;2.75;;;4.60;99.90;;;;;;6232486;22;20463;-85
2022/01/17 03:04:07;;;;;;;24.40;2.63;;;4.60;99.90;;;;;;6208059;23;20095;-86
2022/01/17 03:06:33;;;;;;;18.90;2.35;;;4.60;99.90;;;;;;6184156;23;20048;-85
2022/01/17 03:09:01;;;;;;;29.90;2.90;;;4.60;99.90;;;;;;6186548;23;20098;-87
2022/01/17 03:11:28;;;;;;;17.83;3.03;;;4.60;99.90;;;;;;6205243;23;20016;-86
2022/01/17 03:13:54;;;;;;;27.55;2.72;;;4.60;99.90;;;;;;6184599;23;20016;-85
2022/01/17 03:16:29;;;;;;;18.95;2.50;;;4.60;99.90;;;;;;6235382;23;20015;-85
2022/01/17 03:18:55;;;;;;;20.60;2.60;;;4.60;99.90;;;;;;6235138;23;20019;-85
2022/01/17 03:21:21;;;;;;;24.92;2.88;;;4.60;99.90;;;;;;6235020;22;20474;-85
2022/01/17 03:23:49;;;;;;;15.98;2.67;;;4.60;99.90;;;;;;6207931;23;20011;-86
2022/01/17 03:26:16;;;;;;;24.73;2.60;;;4.60;99.90;;;;;;6208460;23;20073;-87
2022/01/17 03:28:47;;;;;;;33.63;3.42;;;4.60;99.90;;;;;;6209442;23;20361;-86
2022/01/17 03:31:13;;;;;;;29.15;2.45;;;4.60;99.90;;;;;;6234183;23;20095;-87
2022/01/17 03:33:42;;;;;;;20.27;2.25;;;4.60;99.90;;;;;;6233168;23;20484;-87
2022/01/17 03:36:10;;;;;;;18.42;2.78;;;4.70;99.90;;;;;;6210183;23;20378;-85
2022/01/17 03:38:37;;;;;;;29.45;2.72;;;4.70;99.90;;;;;;6232154;23;20066;-86
2022/01/17 03:41:07;;;;;;;25.52;3.17;;;4.70;99.90;;;;;;6209283;23;20008;-86
2022/01/17 03:43:41;;;;;;;18.35;2.95;;;4.70;99.90;;;;;;6211930;23;20019;-87
2022/01/17 03:46:07;;;;;;;23.20;2.75;;;4.80;99.90;;;;;;6211264;22;20064;-85
2022/01/17 03:48:36;;;;;;;24.67;3.30;;;4.80;99.90;;;;;;6240517;22;20409;-86
2022/01/17 03:51:06;;;;;;;21.92;3.05;;;4.80;99.90;;;;;;6238690;22;20014;-86
2022/01/17 03:53:32;;;;;;;21.75;2.30;;;4.90;99.90;;;;;;6213459;22;20015;-85
2022/01/17 03:56:01;;;;;;;26.90;2.63;;;4.90;99.90;;;;;;6238425;22;20016;-86
2022/01/17 03:58:30;;;;;;;24.45;2.47;;;4.90;99.90;;;;;;6214024;22;20042;-86
2022/01/17 04:01:06;;;;;;;23.75;2.70;;;4.90;99.90;;;;;;6216396;22;20303;-85
2022/01/17 04:03:32;;;;;;;17.33;2.65;;;4.90;99.90;;;;;;6239939;22;20339;-85
2022/01/17 04:05:58;;;;;;;22.13;2.92;;;5.00;99.90;;;;;;6240647;22;20019;-86
2022/01/17 04:08:35;;;;;;;22.92;2.38;;;5.00;99.90;;;;;;6240376;22;20456;-87
2022/01/17 04:11:00;;;;;;;25.50;2.55;;;5.00;99.90;;;;;;6215726;22;20095;-87
2022/01/17 04:13:33;;;;;;;22.83;2.63;;;5.00;99.90;;;;;;6241519;22;20105;-85
2022/01/17 04:16:05;;;;;;;15.00;2.45;;;5.00;99.90;;;;;;6239997;22;20020;-84
2022/01/17 04:18:34;;;;;;;24.80;3.15;;;5.00;99.90;;;;;;6214395;22;20019;-86
2022/01/17 04:21:02;;;;;;;23.23;2.83;;;5.10;99.90;;;;;;6239787;22;20069;-86
2022/01/17 04:23:34;;;;;;;22.02;2.60;;;5.00;99.90;;;;;;6240152;22;20015;-85
2022/01/17 04:26:23;;;;;;;24.25;2.75;;;5.00;99.90;;;;;;6177898;23;20516;-90
2022/01/17 04:28:48;;;;;;;27.63;2.38;;;5.00;99.90;;;;;;6154308;23;20040;-85
2022/01/17 04:31:28;;;;;;;23.83;2.65;;;4.90;99.90;;;;;;6155635;23;20013;-84
2022/01/17 04:33:55;;;;;;;21.38;2.10;;;4.90;99.90;;;;;;6181016;23;20071;-88
2022/01/17 04:36:36;;;;;;;15.75;2.50;;;4.90;99.90;;;;;;6205972;23;20059;-86
2022/01/17 04:39:03;;;;;;;22.60;2.38;;;4.90;99.90;;;;;;6179005;23;20072;-83
2022/01/17 04:41:40;;;;;;;19.20;2.88;;;4.90;99.90;;;;;;6205056;23;20061;-86
2022/01/17 04:46:53;;;;;;;14.55;2.42;;;5.00;99.90;;;;;;6203765;23;20104;-86
2022/01/17 04:49:19;;;;;;;16.13;2.67;;;5.00;99.90;;;;;;6128283;23;20044;-86
2022/01/17 04:51:45;;;;;;;23.73;2.60;;;5.00;99.90;;;;;;6178691;23;20160;-86
2022/01/17 04:54:40;;;;;;;27.45;3.00;;;5.00;99.90;;;;;;6179737;23;20044;-87
2022/01/17 04:57:06;;;;;;;27.67;2.75;;;5.00;99.90;;;;;;6139805;23;20016;-86
2022/01/17 04:59:32;;;;;;;22.90;2.47;;;5.10;99.90;;;;;;6179816;23;20074;-86
2022/01/17 05:01:58;;;;;;;20.27;2.60;;;5.10;99.90;;;;;;6129655;23;20012;-86
2022/01/17 05:04:24;;;;;;;19.17;2.20;;;5.20;99.90;;;;;;6179016;23;20028;-85
2022/01/17 05:06:56;;;;;;;28.50;3.03;;;5.20;99.90;;;;;;6131243;23;20017;-86
2022/01/17 05:09:31;;;;;;;19.08;2.55;;;5.20;99.90;;;;;;6202135;23;20349;-88
2022/01/17 05:11:57;;;;;;;22.58;3.65;;;5.30;99.90;;;;;;6178164;23;20424;-86
2022/01/17 05:14:26;;;;;;;22.63;2.85;;;5.30;99.90;;;;;;6184520;23;20059;-85
2022/01/17 05:17:01;;;;;;;21.45;2.75;;;5.30;99.90;;;;;;6180282;23;20020;-86
2022/01/17 05:19:56;;;;;;;17.77;3.08;;;5.30;99.90;;;;;;6202113;23;20079;-84
2022/01/17 05:22:26;;;;;;;18.20;2.20;;;5.40;99.90;;;;;;6178904;23;20016;-87
2022/01/17 05:24:56;;;;;;;21.77;2.55;;;5.40;99.90;;;;;;6178873;23;20606;-86
2022/01/17 05:27:41;;;;;;;24.52;2.72;;;5.40;99.90;;;;;;6179153;23;20063;-87
2022/01/17 05:30:38;;;;;;;19.23;2.25;;;5.50;99.90;;;;;;6181518;23;20410;-86
2022/01/17 05:33:10;;;;;;;20.20;2.67;;;5.40;99.90;;;;;;6177077;23;20017;-87
2022/01/17 05:35:39;;;;;;;21.52;2.83;;;5.50;99.90;;;;;;6178246;23;20016;-86
2022/01/17 05:38:04;;;;;;;24.45;2.70;;;5.50;99.90;;;;;;6203241;23;20410;-85
2022/01/17 05:40:30;;;;;;;21.73;2.85;;;5.50;99.90;;;;;;6227580;23;20031;-86
2022/01/17 05:42:59;;;;;;;25.95;3.20;;;5.60;99.90;;;;;;6202339;23;20043;-84
2022/01/17 05:45:25;;;;;;;19.52;2.97;;;5.60;99.90;;;;;;6177993;23;20044;-86
2022/01/17 05:47:51;;;;;;;23.40;3.58;;;5.60;99.90;;;;;;6177914;23;20028;-86
2022/01/17 05:50:17;;;;;;;31.95;3.72;;;5.60;99.90;;;;;;6129281;23;20020;-85
2022/01/17 05:52:44;;;;;;;24.75;3.30;;;5.60;99.90;;;;;;6127980;23;20151;-85
2022/01/17 05:55:13;;;;;;;20.98;3.33;;;5.70;99.90;;;;;;6129649;23;20012;-84
2022/01/17 05:57:39;;;;;;;21.60;3.78;;;5.70;99.90;;;;;;6179599;23;20013;-87
2022/01/17 06:00:14;;;;;;;27.05;3.67;;;5.70;99.90;;;;;;6135987;23;20382;-85
2022/01/17 06:02:49;;;;;;;29.60;3.78;;;5.70;99.90;;;;;;6176465;23;20012;-86
2022/01/17 06:05:18;;;;;;;18.38;3.97;;;5.70;99.90;;;;;;6202555;23;20422;-82
2022/01/17 06:07:52;;;;;;;31.10;3.88;;;5.80;99.90;;;;;;6180469;23;20021;-86
2022/01/17 06:10:33;;;;;;;26.33;3.83;;;5.80;99.90;;;;;;6180112;23;20016;-85
2022/01/17 06:13:07;;;;;;;31.23;4.25;;;5.90;99.90;;;;;;6177955;23;20020;-83
2022/01/17 06:15:43;;;;;;;29.75;4.93;;;5.90;99.90;;;;;;6177320;23;20043;-84
2022/01/17 06:18:12;;;;;;;32.83;4.55;;;5.90;99.90;;;;;;6202377;23;20441;-85
2022/01/17 06:20:43;;;;;;;24.45;4.07;;;5.90;99.90;;;;;;6175970;23;20332;-86
2022/01/17 06:23:11;;;;;;;21.27;3.70;;;5.90;99.90;;;;;;6175501;23;20486;-85
2022/01/17 06:25:37;;;;;;;26.05;3.67;;;5.90;99.90;;;;;;6176306;23;20012;-84
2022/01/17 06:28:09;;;;;;;24.40;4.72;;;5.90;99.90;;;;;;6153301;23;20099;-85
2022/01/17 06:30:52;;;;;;;30.75;5.03;;;6.00;99.90;;;;;;6173977;23;20023;-86
2022/01/17 06:33:21;;;;;;;24.83;4.25;;;6.00;99.90;;;;;;6129425;23;20099;-84
2022/01/17 06:35:53;;;;;;;30.58;4.20;;;6.00;99.90;;;;;;6205177;23;20016;-85
2022/01/17 06:38:19;;;;;;;28.30;4.15;;;6.00;99.90;;;;;;6178052;23;20016;-87
2022/01/17 06:40:50;;;;;;;29.42;4.25;;;6.00;99.90;;;;;;6177864;23;20016;-85
2022/01/17 06:43:16;;;;;;;30.42;4.60;;;6.00;99.90;;;;;;6176475;23;20012;-86
2022/01/17 06:45:45;;;;;;;27.08;5.15;;;6.10;99.90;;;;;;6129194;23;20039;-87
2022/01/17 06:48:27;;;;;;;30.67;5.07;;;6.10;99.90;;;;;;6182895;23;20023;-85
2022/01/17 06:51:06;;;;;;;27.17;5.00;;;6.10;99.90;;;;;;6179205;23;20325;-87
2022/01/17 06:53:34;;;;;;;20.85;4.57;;;6.00;99.90;;;;;;6180158;23;20020;-86
2022/01/17 06:56:00;;;;;;;29.08;5.53;;;6.10;99.90;;;;;;6176862;23;20160;-85
2022/01/17 06:58:35;;;;;;;25.65;4.60;;;6.10;99.90;;;;;;6177176;23;20395;-86
2022/01/17 07:01:07;;;;;;;32.58;5.65;;;6.10;99.90;;;;;;6176295;23;20015;-85
2022/01/17 07:03:32;;;;;;;42.67;5.82;;;6.10;99.90;;;;;;6179040;23;20472;-85
2022/01/17 07:05:58;;;;;;;26.40;5.47;;;6.10;99.90;;;;;;6178908;23;20099;-86
2022/01/17 07:08:30;;;;;;;41.30;5.40;;;6.10;99.90;;;;;;6182238;23;20169;-86
2022/01/17 07:10:59;;;;;;;34.88;5.85;;;6.10;99.90;;;;;;6176212;23;20175;-86
2022/01/17 07:13:31;;;;;;;39.22;5.68;;;6.10;99.90;;;;;;6179388;23;20028;-86
2022/01/17 07:15:57;;;;;;;27.42;5.03;;;6.10;99.90;;;;;;6177072;23;20013;-86
2022/01/17 07:18:23;;;;;;;32.97;5.10;;;6.10;99.90;;;;;;6178510;23;20016;-87
2022/01/17 07:20:52;;;;;;;34.72;5.88;;;6.10;99.90;;;;;;6180685;23;20012;-85
2022/01/17 07:23:42;;;;;;;38.67;6.30;;;6.10;99.90;;;;;;6180919;23;20435;-86
2022/01/17 07:26:23;;;;;;;;;;;;;;;;;;;;;
2022/01/17 07:28:50;;;;;;;29.08;5.68;;;6.10;99.90;;;;;;6181484;23;20024;-84
2022/01/17 07:31:30;;;;;;;24.48;5.53;;;6.10;99.90;;;;;;6179594;23;20012;-85
2022/01/17 07:33:56;;;;;;;40.25;6.57;;;6.10;99.90;;;;;;6180409;23;20565;-86
2022/01/17 07:36:25;;;;;;;37.88;6.18;;;6.10;99.90;;;;;;6130093;23;20040;-87
2022/01/17 07:38:58;;;;;;;37.17;5.70;;;6.10;99.90;;;;;;6178229;23;20498;-86
2022/01/17 07:41:33;;;;;;;36.97;5.72;;;6.10;99.90;;;;;;6179108;23;20020;-85
2022/01/17 07:44:02;;;;;;;32.88;6.20;;;6.20;99.90;;;;;;6179848;23;20040;-85
2022/01/17 07:46:47;;;;;;;27.88;6.22;;;6.20;99.90;;;;;;6179379;23;20517;-85
2022/01/17 07:49:19;;;;;;;45.60;7.25;;;6.20;99.90;;;;;;6182254;23;20023;-86
2022/01/17 07:52:34;;;;;;;36.28;5.93;;;6.20;99.90;;;;;;6180455;23;20092;-86
2022/01/17 07:55:13;;;;;;;39.83;6.28;;;6.20;99.90;;;;;;6163164;23;20039;-87
2022/01/17 07:57:42;;;;;;;40.28;6.60;;;6.20;99.90;;;;;;6179685;23;20591;-85
2022/01/17 08:00:10;;;;;;;35.60;5.85;;;6.30;99.90;;;;;;6180194;23;20016;-87
2022/01/17 08:02:36;;;;;;;36.90;6.30;;;6.30;99.90;;;;;;6180727;23;20016;-86
2022/01/17 08:05:03;;;;;;;47.58;5.13;;;6.30;99.90;;;;;;6207026;23;20454;-85
2022/01/17 08:07:32;;;;;;;37.45;5.03;;;6.30;99.90;;;;;;6179204;23;20264;-87
2022/01/17 08:10:07;;;;;;;29.10;4.97;;;6.40;99.90;;;;;;6131044;23;20016;-85
2022/01/17 08:12:46;;;;;;;48.67;5.63;;;6.40;99.90;;;;;;6182170;23;20012;-85
2022/01/17 08:15:13;;;;;;;39.95;5.25;;;6.40;99.90;;;;;;6182589;23;20023;-85
2022/01/17 08:17:54;;;;;;;46.70;5.38;;;6.40;99.90;;;;;;6184359;23;20052;-84
2022/01/17 08:20:20;;;;;;;38.50;5.13;;;6.50;99.90;;;;;;6184776;23;20013;-84
2022/01/17 08:22:46;;;;;;;41.40;6.32;;;6.50;99.90;;;;;;6181761;23;20015;-83
2022/01/17 08:25:15;;;;;;;40.63;6.28;;;6.40;99.90;;;;;;6177880;23;20275;-84
2022/01/17 08:27:59;;;;;;;39.22;6.43;;;6.50;99.90;;;;;;6182214;23;20055;-86
2022/01/17 08:30:37;;;;;;;45.53;5.80;;;6.50;99.90;;;;;;6134628;23;20020;-84
2022/01/17 08:33:03;;;;;;;39.45;4.55;;;6.50;99.90;;;;;;6181195;23;20021;-85
2022/01/17 08:35:32;;;;;;;45.40;6.07;;;6.50;99.90;;;;;;6183249;23;20016;-83
2022/01/17 08:37:58;;;;;;;54.90;5.95;;;6.50;99.90;;;;;;6185943;23;20533;-84
2022/01/17 08:40:32;;;;;;;43.65;4.88;;;6.60;99.90;;;;;;6179702;23;20476;-85
2022/01/17 08:43:07;;;;;;;42.42;5.40;;;6.50;99.90;;;;;;6186555;23;20040;-84
2022/01/17 08:45:33;;;;;;;46.80;5.60;;;6.60;99.90;;;;;;6181326;23;20055;-84
2022/01/17 08:47:59;;;;;;;43.10;6.10;;;6.60;99.90;;;;;;6182973;23;20349;-84
2022/01/17 08:50:27;;;;;;;58.05;5.72;;;6.60;99.90;;;;;;6206445;23;20036;-84
2022/01/17 08:52:53;;;;;;;56.13;5.93;;;6.60;99.90;;;;;;6180850;23;20063;-86
2022/01/17 08:55:25;;;;;;;39.72;5.05;;;6.60;99.90;;;;;;6183692;23;20032;-84
2022/01/17 08:57:51;;;;;;;42.30;5.13;;;6.60;99.90;;;;;;6227778;23;20070;-84
2022/01/17 09:00:19;;;;;;;35.63;5.15;;;6.70;99.90;;;;;;6183684;23;20075;-84
2022/01/17 09:02:45;;;;;;;45.65;5.40;;;6.70;99.90;;;;;;6182509;23;20019;-83
2022/01/17 09:05:11;;;;;;;45.75;5.82;;;6.70;99.90;;;;;;6133566;23;20064;-83
2022/01/17 09:07:36;;;;;;;49.00;5.63;;;6.70;99.90;;;;;;6132201;23;20426;-84
2022/01/17 09:10:08;;;;;;;42.40;5.55;;;6.70;99.90;;;;;;6133349;23;20020;-85
2022/01/17 09:12:38;;;;;;;31.30;5.03;;;6.70;99.90;;;;;;6181390;23;20150;-84
2022/01/17 09:15:06;;;;;;;54.15;5.28;;;6.70;99.90;;;;;;6189525;23;20012;-85
2022/01/17 09:17:32;;;;;;;41.72;5.32;;;6.80;99.90;;;;;;6141075;23;20110;-84
2022/01/17 09:20:04;;;;;;;50.17;5.82;;;6.80;99.90;;;;;;6206911;22;20024;-84
2022/01/17 09:22:30;;;;;;;54.70;6.05;;;6.80;99.90;;;;;;6224349;23;20055;-84
2022/01/17 09:24:59;;;;;;;55.35;5.13;;;6.90;99.90;;;;;;6187051;23;20020;-84
2022/01/17 09:27:29;;;;;;;47.28;4.65;;;6.90;99.90;;;;;;6183468;23;20365;-84
2022/01/17 09:29:55;;;;;;;45.65;5.50;;;6.90;99.90;;;;;;6187004;23;20031;-84
2022/01/17 09:32:20;;;;;;;56.60;5.05;;;7.00;99.90;;;;;;6187950;23;20244;-85
2022/01/17 09:34:49;;;;;;;50.50;6.00;;;7.00;99.90;;;;;;6162839;23;20024;-87
2022/01/17 09:37:15;;;;;;;44.63;6.05;;;7.00;99.90;;;;;;6189233;23;20056;-85
2022/01/17 09:39:41;;;;;;;49.63;5.35;;;7.10;99.90;;;;;;6187003;23;20053;-86
2022/01/17 09:42:08;;;;;;;43.83;5.22;;;7.10;99.90;;;;;;6156472;23;20449;-85
2022/01/17 09:44:41;;;;;;;47.53;6.00;;;7.20;99.90;;;;;;6176507;23;20016;-85
2022/01/17 09:47:21;;;;;;;48.13;5.50;;;7.20;99.90;;;;;;6180401;23;20012;-87
2022/01/17 09:49:54;;;;;;;49.13;5.32;;;7.30;99.90;;;;;;6182263;23;20246;-85
2022/01/17 09:52:35;;;;;;;49.30;5.68;;;7.40;99.90;;;;;;6180892;23;20017;-87
2022/01/17 09:55:12;;;;;;;48.00;5.47;;;7.50;99.90;;;;;;6179142;23;20024;-85
2022/01/17 09:58:03;;;;;;;42.10;5.05;;;7.60;99.90;;;;;;6176993;23;20028;-86
2022/01/17 10:00:31;;;;;;;43.70;5.20;;;7.70;99.90;;;;;;6170463;23;20088;-82
2022/01/17 10:03:02;;;;;;;38.53;4.97;;;7.80;99.90;;;;;;6180391;23;20012;-84
2022/01/17 10:05:28;;;;;;;44.97;4.78;;;7.80;99.90;;;;;;6177188;23;20020;-85
2022/01/17 10:08:01;;;;;;;46.83;5.72;;;8.00;99.90;;;;;;6181798;23;20031;-84
2022/01/17 10:10:49;;;;;;;38.47;5.40;;;8.00;99.90;;;;;;6179273;23;20046;-82
2022/01/17 10:13:25;;;;;;;42.67;6.00;;;8.10;99.90;;;;;;6178087;23;20381;-85
2022/01/17 10:16:11;;;;;;;41.55;5.35;;;8.20;99.90;;;;;;6178213;23;20019;-85
2022/01/17 10:18:49;;;;;;;57.05;5.70;;;8.30;99.90;;;;;;6177384;23;20523;-81
2022/01/17 10:21:36;;;;;;;38.33;5.72;;;8.40;99.90;;;;;;6175759;23;20378;-83
2022/01/17 10:35:20;;;;;;;44.58;5.97;;;8.70;99.90;;;;;;6203174;23;20333;-83
2022/01/17 10:38:02;;;;;;;50.97;6.53;;;8.80;99.90;;;;;;6178294;23;20389;-84
2022/01/17 10:40:32;;;;;;;43.58;6.43;;;8.90;99.90;;;;;;6174754;23;20300;-83
2022/01/17 10:43:00;;;;;;;53.10;6.47;;;8.90;99.90;;;;;;6176975;23;20404;-86
2022/01/17 10:45:35;;;;;;;45.80;6.07;;;9.00;99.90;;;;;;6179087;23;20370;-86
2022/01/17 10:48:02;;;;;;;41.90;5.20;;;9.00;99.90;;;;;;6179326;23;20091;-85
2022/01/17 10:50:33;;;;;;;47.35;6.82;;;9.10;99.90;;;;;;6154014;23;20012;-85
2022/01/17 10:53:01;;;;;;;50.17;7.38;;;9.10;99.90;;;;;;6180139;23;20020;-84
2022/01/17 10:55:29;;;;;;;57.00;6.22;;;9.10;99.90;;;;;;6179749;23;20024;-83
2022/01/17 10:58:31;;;;;;;49.67;6.95;;;9.20;99.90;;;;;;6201763;23;20018;-83
2022/01/17 11:01:11;;;;;;;56.30;6.50;;;9.20;99.90;;;;;;6175559;23;20052;-84
2022/01/17 11:03:42;;;;;;;44.92;5.80;;;9.30;99.90;;;;;;6178707;23;20012;-86
2022/01/17 11:06:29;;;;;;;41.03;6.47;;;9.40;99.90;;;;;;6204014;23;20497;-84
2022/01/17 11:09:10;;;;;;;48.97;6.50;;;9.40;99.90;;;;;;6179000;23;20012;-84
2022/01/17 11:11:39;;;;;;;46.17;5.57;;;9.40;99.90;;;;;;6151973;23;20466;-85
2022/01/17 11:14:09;;;;;;;52.67;7.15;;;9.40;99.90;;;;;;6178638;23;20048;-85
2022/01/17 11:16:37;;;;;;;46.85;6.40;;;9.40;99.90;;;;;;6178218;23;20009;-84
2022/01/17 11:21:50;;;;;;;52.15;7.93;;;9.40;99.90;;;;;;6202686;23;20104;-84
2022/01/17 11:24:16;;;;;;;57.05;7.05;;;9.40;99.90;;;;;;6179278;23;20009;-82
2022/01/17 11:26:45;;;;;;;38.85;6.15;;;9.30;99.90;;;;;;6154853;23;20126;-83
2022/01/17 11:29:22;;;;;;;54.85;6.40;;;9.30;99.90;;;;;;6156739;23;20021;-83
2022/01/17 11:31:48;;;;;;;45.95;5.75;;;9.30;99.90;;;;;;6181042;23;20540;-86
2022/01/17 11:34:19;;;;;;;51.80;7.72;;;9.40;99.90;;;;;;6180471;23;20374;-84
2022/01/17 11:36:45;;;;;;;49.40;6.70;;;9.40;99.90;;;;;;6179321;23;20471;-84
2022/01/17 11:39:15;;;;;;;39.72;6.80;;;9.50;99.90;;;;;;6155187;23;20390;-82
2022/01/17 11:42:07;;;;;;;57.03;7.43;;;9.50;99.90;;;;;;6202239;23;20008;-85
2022/01/17 11:44:38;;;;;;;51.38;6.57;;;9.50;99.90;;;;;;6180415;23;20357;-87
2022/01/17 11:47:10;;;;;;;46.70;6.22;;;9.50;99.90;;;;;;6182978;23;20380;-84
2022/01/17 11:49:40;;;;;;;53.80;6.82;;;9.50;99.90;;;;;;6181819;23;20032;-84
2022/01/17 11:52:27;;;;;;;;;;;9.50;99.90;;;;;;6179956;23;20673;-83
2022/01/17 11:54:55;;;;;;;43.88;6.30;;;9.40;99.90;;;;;;6178623;23;20550;-84
2022/01/17 11:57:23;;;;;;;61.35;6.82;;;9.50;99.90;;;;;;6179746;23;20015;-85
2022/01/17 12:00:02;;;;;;;54.28;6.88;;;9.50;99.90;;;;;;6179402;23;20015;-85
2022/01/17 12:02:37;;;;;;;44.25;6.50;;;9.50;99.90;;;;;;6184214;23;20092;-84
2022/01/17 12:05:11;;;;;;;49.40;6.57;;;9.50;99.90;;;;;;6180647;23;20024;-82
2022/01/17 12:07:47;;;;;;;40.65;6.55;;;9.50;99.90;;;;;;6206260;23;20059;-86
2022/01/17 12:10:18;;;;;;;45.38;6.30;;;9.50;99.90;;;;;;6204466;23;20457;-82
2022/01/17 12:13:14;;;;;;;44.45;6.50;;;9.50;99.90;;;;;;6178230;23;20020;-82
2022/01/17 12:16:22;;;;;;;41.22;6.97;;;9.50;99.90;;;;;;6182077;23;20358;-86
2022/01/17 12:19:07;;;;;;;51.17;7.05;;;9.50;99.90;;;;;;6206161;23;20484;-82
2022/01/17 12:21:32;;;;;;;43.63;7.32;;;9.40;99.90;;;;;;6180022;23;20087;-82
2022/01/17 12:24:17;;;;;;;40.58;6.00;;;9.40;99.90;;;;;;6179938;23;20012;-82
2022/01/17 12:27:08;;;;;;;47.75;6.45;;;9.50;99.90;;;;;;6180100;23;20493;-81
2022/01/17 12:30:10;;;;;;;36.03;5.90;;;9.50;99.90;;;;;;6205633;23;20342;-83
2022/01/17 12:32:36;;;;;;;42.75;5.88;;;9.50;99.90;;;;;;6120162;23;20049;-84
2022/01/17 12:35:05;;;;;;;45.25;5.63;;;9.60;99.90;;;;;;6167227;23;20012;-84
2022/01/17 12:38:03;;;;;;;40.33;6.80;;;9.60;99.90;;;;;;6180011;23;20078;-84
2022/01/17 12:40:40;;;;;;;42.58;6.07;;;9.60;99.90;;;;;;6206102;23;20088;-83
2022/01/17 12:43:13;;;;;;;39.30;5.28;;;9.60;99.90;;;;;;6184937;23;20468;-83
2022/01/17 12:45:45;;;;;;;37.42;5.82;;;9.60;99.90;;;;;;6182978;23;20020;-83
2022/01/17 12:48:20;;;;;;;43.63;6.13;;;9.60;99.90;;;;;;6185700;23;20323;-84
2022/01/17 12:50:50;;;;;;;46.50;5.75;;;9.60;99.90;;;;;;6182324;23;20296;-85
2022/01/17 12:53:22;;;;;;;43.45;6.07;;;9.60;99.90;;;;;;6178480;23;20016;-83
2022/01/17 12:55:51;;;;;;;34.73;5.43;;;9.60;99.90;;;;;;6182698;23;20023;-84
2022/01/17 12:58:18;;;;;;;39.25;5.28;;;9.50;99.90;;;;;;6179433;23;20017;-85
2022/01/17 13:00:58;;;;;;;41.53;6.32;;;9.50;99.90;;;;;;6176251;23;20159;-85
2022/01/17 13:03:26;;;;;;;34.25;4.95;;;9.50;99.90;;;;;;6179223;23;20019;-84
2022/01/17 13:05:56;;;;;;;35.55;5.13;;;9.50;99.90;;;;;;6180472;23;20023;-85
2022/01/17 13:08:25;;;;;;;51.95;7.43;;;9.40;99.90;;;;;;6155073;23;20182;-84
2022/01/17 13:11:02;;;;;;;36.92;6.38;;;9.40;99.90;;;;;;6179863;23;20126;-83
2022/01/17 13:13:28;;;;;;;49.15;7.07;;;9.40;99.90;;;;;;6179607;23;20418;-85
2022/01/17 13:16:03;;;;;;;37.97;5.75;;;9.50;99.90;;;;;;6154611;23;20052;-83
2022/01/17 13:18:32;;;;;;;47.25;6.63;;;9.50;99.90;;;;;;6182797;23;20028;-84
2022/01/17 13:21:01;;;;;;;39.60;5.88;;;9.50;99.90;;;;;;6177124;23;20016;-84
2022/01/17 13:24:12;;;;;;;33.92;5.65;;;9.50;99.90;;;;;;6182010;23;20523;-85
2022/01/17 13:26:56;;;;;;;36.22;5.45;;;9.60;99.90;;;;;;6182328;23;20098;-84
2022/01/17 13:29:30;;;;;;;42.88;6.05;;;9.70;99.90;;;;;;6182129;23;20013;-82
2022/01/17 13:31:58;;;;;;;48.10;7.10;;;9.70;99.90;;;;;;6173638;23;20012;-83
2022/01/17 13:34:28;;;;;;;38.88;5.75;;;9.70;99.90;;;;;;6180289;23;20492;-83
2022/01/17 13:37:20;;;;;;;44.22;6.53;;;9.80;99.90;;;;;;6180823;23;20086;-84